sensor_id;sensor_type;location;lat;lon;timestamp;P1;durP1;ratioP1;P2;durP2;ratioP2
10801;SDS011;5453;50.852;7.102;2022-11-15T00:00:08;4.93;;;2.78;;
10801;SDS011;5453;50.852;7.102;2022-11-15T00:03:00;5.80;;;3.15;;
10801;SDS011;5453;50.852;7.102;2022-11-15T00:05:52;5.38;;;3.10;;
10801;SDS011;5453;50.852;7.102;2022-11-15T00:08:44;5.95;;;2.97;;
10801;SDS011;5453;50.852;7.102;2022-11-15T00:11:34;7.30;;;3.40;;
10801;SDS011;5453;50.852;7.102;2022-11-15T00:14:25;5.95;;;3.03;;
10801;SDS011;5453;50.852;7.102;2022-11-15T00:17:16;5.93;;;3.33;;
10801;SDS011;5453;50.852;7.102;2022-11-15T00:20:07;6.75;;;3.58;;
10801;SDS011;5453;50.852;7.102;2022-11-15T00:23:01;6.85;;;3.95;;
10801;SDS011;5453;50.852;7.102;2022-11-15T00:25:56;8.05;;;4.18;;
10801;SDS011;5453;50.852;7.102;2022-11-15T00:28:47;7.00;;;3.83;;
10801;SDS011;5453;50.852;7.102;2022-11-15T00:31:37;10.50;;;4.28;;
10801;SDS011;5453;50.852;7.102;2022-11-15T00:34:28;9.15;;;4.45;;
10801;SDS011;5453;50.852;7.102;2022-11-15T00:37:19;11.63;;;4.72;;
10801;SDS011;5453;50.852;7.102;2022-11-15T00:40:11;10.68;;;5.53;;
10801;SDS011;5453;50.852;7.102;2022-11-15T00:43:04;9.23;;;4.60;;
10801;SDS011;5453;50.852;7.102;2022-11-15T00:45:55;10.82;;;4.80;;
10801;SDS011;5453;50.852;7.102;2022-11-15T00:48:46;11.05;;;4.45;;
10801;SDS011;5453;50.852;7.102;2022-11-15T00:51:37;9.40;;;4.70;;
10801;SDS011;5453;50.852;7.102;2022-11-15T00:54:28;9.50;;;5.55;;
10801;SDS011;5453;50.852;7.102;2022-11-15T00:57:20;9.13;;;4.43;;
10801;SDS011;5453;50.852;7.102;2022-11-15T01:00:11;9.02;;;4.53;;
10801;SDS011;5453;50.852;7.102;2022-11-15T01:03:02;11.07;;;4.88;;
10801;SDS011;5453;50.852;7.102;2022-11-15T01:05:53;8.85;;;4.07;;
10801;SDS011;5453;50.852;7.102;2022-11-15T01:08:47;10.35;;;4.95;;
10801;SDS011;5453;50.852;7.102;2022-11-15T01:11:38;8.68;;;4.60;;
10801;SDS011;5453;50.852;7.102;2022-11-15T01:14:30;9.63;;;4.68;;
10801;SDS011;5453;50.852;7.102;2022-11-15T01:17:21;10.10;;;4.80;;
10801;SDS011;5453;50.852;7.102;2022-11-15T01:20:12;11.30;;;5.32;;
10801;SDS011;5453;50.852;7.102;2022-11-15T01:23:03;10.35;;;4.28;;
10801;SDS011;5453;50.852;7.102;2022-11-15T01:25:58;8.93;;;4.10;;
10801;SDS011;5453;50.852;7.102;2022-11-15T01:28:48;7.65;;;4.15;;
10801;SDS011;5453;50.852;7.102;2022-11-15T01:31:41;10.60;;;4.80;;
10801;SDS011;5453;50.852;7.102;2022-11-15T01:34:32;8.38;;;4.60;;
10801;SDS011;5453;50.852;7.102;2022-11-15T01:37:22;9.70;;;4.47;;
10801;SDS011;5453;50.852;7.102;2022-11-15T01:40:14;10.00;;;4.43;;
10801;SDS011;5453;50.852;7.102;2022-11-15T01:43:18;9.27;;;4.60;;
10801;SDS011;5453;50.852;7.102;2022-11-15T01:46:17;7.53;;;3.97;;
10801;SDS011;5453;50.852;7.102;2022-11-15T01:49:24;9.75;;;5.13;;
10801;SDS011;5453;50.852;7.102;2022-11-15T01:52:18;8.55;;;4.10;;
10801;SDS011;5453;50.852;7.102;2022-11-15T01:55:12;11.07;;;4.85;;
10801;SDS011;5453;50.852;7.102;2022-11-15T01:58:08;9.27;;;4.10;;
10801;SDS011;5453;50.852;7.102;2022-11-15T02:00:58;7.30;;;4.00;;
10801;SDS011;5453;50.852;7.102;2022-11-15T02:03:51;10.10;;;4.43;;
10801;SDS011;5453;50.852;7.102;2022-11-15T02:06:48;7.30;;;3.47;;
10801;SDS011;5453;50.852;7.102;2022-11-15T02:09:40;9.43;;;4.47;;
10801;SDS011;5453;50.852;7.102;2022-11-15T02:12:31;7.55;;;3.60;;
10801;SDS011;5453;50.852;7.102;2022-11-15T02:15:23;7.22;;;3.55;;
10801;SDS011;5453;50.852;7.102;2022-11-15T02:18:18;11.20;;;4.65;;
10801;SDS011;5453;50.852;7.102;2022-11-15T02:21:17;7.93;;;4.00;;
10801;SDS011;5453;50.852;7.102;2022-11-15T02:28:04;7.40;;;3.72;;
10801;SDS011;5453;50.852;7.102;2022-11-15T02:31:19;7.05;;;3.63;;
10801;SDS011;5453;50.852;7.102;2022-11-15T02:34:20;6.43;;;3.33;;
10801;SDS011;5453;50.852;7.102;2022-11-15T02:37:21;7.47;;;3.45;;
10801;SDS011;5453;50.852;7.102;2022-11-15T02:40:25;7.32;;;3.53;;
10801;SDS011;5453;50.852;7.102;2022-11-15T02:43:25;7.63;;;3.95;;
10801;SDS011;5453;50.852;7.102;2022-11-15T02:49:58;7.53;;;3.80;;
10801;SDS011;5453;50.852;7.102;2022-11-15T02:52:53;8.50;;;3.53;;
10801;SDS011;5453;50.852;7.102;2022-11-15T02:55:46;6.15;;;3.53;;
10801;SDS011;5453;50.852;7.102;2022-11-15T02:58:53;7.97;;;3.67;;
10801;SDS011;5453;50.852;7.102;2022-11-15T03:02:13;5.97;;;3.80;;
10801;SDS011;5453;50.852;7.102;2022-11-15T03:05:17;7.03;;;3.60;;
10801;SDS011;5453;50.852;7.102;2022-11-15T03:08:17;7.75;;;3.80;;
10801;SDS011;5453;50.852;7.102;2022-11-15T03:11:14;5.82;;;3.10;;
10801;SDS011;5453;50.852;7.102;2022-11-15T03:14:09;6.57;;;3.90;;
10801;SDS011;5453;50.852;7.102;2022-11-15T03:17:15;7.63;;;4.05;;
10801;SDS011;5453;50.852;7.102;2022-11-15T03:20:10;6.75;;;3.40;;
10801;SDS011;5453;50.852;7.102;2022-11-15T03:23:05;5.72;;;3.15;;
10801;SDS011;5453;50.852;7.102;2022-11-15T03:25:59;7.32;;;3.58;;
10801;SDS011;5453;50.852;7.102;2022-11-15T03:28:51;7.57;;;3.25;;
10801;SDS011;5453;50.852;7.102;2022-11-15T03:31:47;7.80;;;3.15;;
10801;SDS011;5453;50.852;7.102;2022-11-15T03:34:47;6.47;;;3.03;;
10801;SDS011;5453;50.852;7.102;2022-11-15T03:37:43;7.13;;;3.30;;
10801;SDS011;5453;50.852;7.102;2022-11-15T03:40:40;6.15;;;3.13;;
10801;SDS011;5453;50.852;7.102;2022-11-15T03:43:33;6.03;;;3.30;;
10801;SDS011;5453;50.852;7.102;2022-11-15T03:46:32;7.63;;;3.22;;
10801;SDS011;5453;50.852;7.102;2022-11-15T03:49:30;7.45;;;3.50;;
10801;SDS011;5453;50.852;7.102;2022-11-15T03:52:26;6.97;;;3.20;;
10801;SDS011;5453;50.852;7.102;2022-11-15T03:55:21;5.90;;;3.30;;
10801;SDS011;5453;50.852;7.102;2022-11-15T03:58:13;8.20;;;3.63;;
10801;SDS011;5453;50.852;7.102;2022-11-15T04:01:04;8.30;;;3.95;;
10801;SDS011;5453;50.852;7.102;2022-11-15T04:03:55;7.72;;;3.47;;
10801;SDS011;5453;50.852;7.102;2022-11-15T04:06:46;8.05;;;4.10;;
10801;SDS011;5453;50.852;7.102;2022-11-15T04:09:38;8.32;;;3.83;;
10801;SDS011;5453;50.852;7.102;2022-11-15T04:12:43;7.45;;;4.20;;
10801;SDS011;5453;50.852;7.102;2022-11-15T04:15:37;9.85;;;5.97;;
10801;SDS011;5453;50.852;7.102;2022-11-15T04:18:28;8.43;;;4.40;;
10801;SDS011;5453;50.852;7.102;2022-11-15T04:21:18;10.45;;;5.60;;
10801;SDS011;5453;50.852;7.102;2022-11-15T04:24:26;9.48;;;4.95;;
10801;SDS011;5453;50.852;7.102;2022-11-15T04:27:19;8.35;;;4.72;;
10801;SDS011;5453;50.852;7.102;2022-11-15T04:30:10;7.47;;;4.32;;
10801;SDS011;5453;50.852;7.102;2022-11-15T04:33:01;7.35;;;3.83;;
10801;SDS011;5453;50.852;7.102;2022-11-15T04:35:51;6.03;;;3.55;;
10801;SDS011;5453;50.852;7.102;2022-11-15T04:39:00;7.85;;;3.55;;
10801;SDS011;5453;50.852;7.102;2022-11-15T04:41:50;6.72;;;4.18;;
10801;SDS011;5453;50.852;7.102;2022-11-15T04:44:42;6.85;;;3.80;;
10801;SDS011;5453;50.852;7.102;2022-11-15T04:47:32;7.63;;;4.38;;
10801;SDS011;5453;50.852;7.102;2022-11-15T04:50:23;8.23;;;3.70;;
10801;SDS011;5453;50.852;7.102;2022-11-15T04:53:13;6.55;;;3.60;;
10801;SDS011;5453;50.852;7.102;2022-11-15T04:56:04;5.95;;;3.50;;
10801;SDS011;5453;50.852;7.102;2022-11-15T04:58:54;6.93;;;3.42;;
10801;SDS011;5453;50.852;7.102;2022-11-15T05:01:46;4.63;;;2.80;;
10801;SDS011;5453;50.852;7.102;2022-11-15T05:04:37;6.68;;;3.25;;
10801;SDS011;5453;50.852;7.102;2022-11-15T05:07:27;4.07;;;2.55;;
10801;SDS011;5453;50.852;7.102;2022-11-15T05:10:18;5.50;;;3.00;;
10801;SDS011;5453;50.852;7.102;2022-11-15T05:13:09;5.40;;;3.00;;
10801;SDS011;5453;50.852;7.102;2022-11-15T05:16:00;5.45;;;3.08;;
10801;SDS011;5453;50.852;7.102;2022-11-15T05:18:52;5.53;;;3.05;;
10801;SDS011;5453;50.852;7.102;2022-11-15T05:21:44;5.05;;;2.95;;
10801;SDS011;5453;50.852;7.102;2022-11-15T05:24:34;4.20;;;2.72;;
10801;SDS011;5453;50.852;7.102;2022-11-15T05:27:25;5.20;;;3.03;;
10801;SDS011;5453;50.852;7.102;2022-11-15T05:30:16;7.45;;;4.03;;
10801;SDS011;5453;50.852;7.102;2022-11-15T05:33:06;5.65;;;3.38;;
10801;SDS011;5453;50.852;7.102;2022-11-15T05:36:00;6.00;;;3.15;;
10801;SDS011;5453;50.852;7.102;2022-11-15T05:38:55;4.28;;;2.58;;
10801;SDS011;5453;50.852;7.102;2022-11-15T05:41:47;5.72;;;2.83;;
10801;SDS011;5453;50.852;7.102;2022-11-15T05:44:44;4.32;;;2.58;;
10801;SDS011;5453;50.852;7.102;2022-11-15T05:50:29;4.28;;;2.22;;
10801;SDS011;5453;50.852;7.102;2022-11-15T05:53:21;3.72;;;2.45;;
10801;SDS011;5453;50.852;7.102;2022-11-15T05:56:14;5.25;;;2.25;;
10801;SDS011;5453;50.852;7.102;2022-11-15T05:59:05;3.75;;;2.40;;
10801;SDS011;5453;50.852;7.102;2022-11-15T06:01:57;3.83;;;2.20;;
10801;SDS011;5453;50.852;7.102;2022-11-15T06:04:48;4.68;;;2.30;;
10801;SDS011;5453;50.852;7.102;2022-11-15T06:07:39;5.15;;;2.72;;
10801;SDS011;5453;50.852;7.102;2022-11-15T06:10:31;4.00;;;2.03;;
10801;SDS011;5453;50.852;7.102;2022-11-15T06:13:22;4.10;;;2.30;;
10801;SDS011;5453;50.852;7.102;2022-11-15T06:16:12;4.75;;;2.40;;
10801;SDS011;5453;50.852;7.102;2022-11-15T06:19:03;4.78;;;3.10;;
10801;SDS011;5453;50.852;7.102;2022-11-15T06:21:55;5.07;;;3.00;;
10801;SDS011;5453;50.852;7.102;2022-11-15T06:24:45;5.22;;;3.00;;
10801;SDS011;5453;50.852;7.102;2022-11-15T06:27:37;4.68;;;2.92;;
10801;SDS011;5453;50.852;7.102;2022-11-15T06:30:28;4.65;;;2.63;;
10801;SDS011;5453;50.852;7.102;2022-11-15T06:33:19;4.18;;;2.60;;
10801;SDS011;5453;50.852;7.102;2022-11-15T06:36:10;5.45;;;2.80;;
10801;SDS011;5453;50.852;7.102;2022-11-15T06:39:04;5.82;;;2.70;;
10801;SDS011;5453;50.852;7.102;2022-11-15T06:41:55;5.90;;;2.97;;
10801;SDS011;5453;50.852;7.102;2022-11-15T06:44:47;4.50;;;2.88;;
10801;SDS011;5453;50.852;7.102;2022-11-15T06:47:43;7.38;;;3.80;;
10801;SDS011;5453;50.852;7.102;2022-11-15T06:50:35;7.75;;;3.85;;
10801;SDS011;5453;50.852;7.102;2022-11-15T06:53:25;6.03;;;3.50;;
10801;SDS011;5453;50.852;7.102;2022-11-15T06:56:17;7.82;;;4.20;;
10801;SDS011;5453;50.852;7.102;2022-11-15T06:59:07;5.95;;;3.40;;
10801;SDS011;5453;50.852;7.102;2022-11-15T07:01:59;5.68;;;3.13;;
10801;SDS011;5453;50.852;7.102;2022-11-15T07:04:49;5.30;;;3.63;;
10801;SDS011;5453;50.852;7.102;2022-11-15T07:07:40;5.35;;;3.00;;
10801;SDS011;5453;50.852;7.102;2022-11-15T07:10:30;8.52;;;2.95;;
10801;SDS011;5453;50.852;7.102;2022-11-15T07:13:23;4.53;;;2.75;;
10801;SDS011;5453;50.852;7.102;2022-11-15T07:16:14;4.75;;;2.75;;
10801;SDS011;5453;50.852;7.102;2022-11-15T07:19:06;5.43;;;2.83;;
10801;SDS011;5453;50.852;7.102;2022-11-15T07:21:58;7.47;;;2.50;;
10801;SDS011;5453;50.852;7.102;2022-11-15T07:24:48;3.95;;;2.20;;
10801;SDS011;5453;50.852;7.102;2022-11-15T07:27:39;4.45;;;2.40;;
10801;SDS011;5453;50.852;7.102;2022-11-15T07:30:29;5.10;;;2.47;;
10801;SDS011;5453;50.852;7.102;2022-11-15T07:33:20;5.40;;;2.55;;
10801;SDS011;5453;50.852;7.102;2022-11-15T07:36:12;5.07;;;2.47;;
10801;SDS011;5453;50.852;7.102;2022-11-15T07:39:03;4.68;;;2.10;;
10801;SDS011;5453;50.852;7.102;2022-11-15T07:41:53;3.78;;;2.00;;
10801;SDS011;5453;50.852;7.102;2022-11-15T07:45:04;3.50;;;1.88;;
10801;SDS011;5453;50.852;7.102;2022-11-15T07:47:55;5.40;;;1.88;;
10801;SDS011;5453;50.852;7.102;2022-11-15T07:50:46;4.93;;;1.80;;
10801;SDS011;5453;50.852;7.102;2022-11-15T07:53:38;2.47;;;1.58;;
10801;SDS011;5453;50.852;7.102;2022-11-15T07:56:29;2.75;;;1.70;;
10801;SDS011;5453;50.852;7.102;2022-11-15T07:59:20;3.25;;;2.10;;
10801;SDS011;5453;50.852;7.102;2022-11-15T08:02:10;2.90;;;1.55;;
10801;SDS011;5453;50.852;7.102;2022-11-15T08:05:01;1.80;;;1.15;;
10801;SDS011;5453;50.852;7.102;2022-11-15T08:07:51;2.50;;;1.60;;
10801;SDS011;5453;50.852;7.102;2022-11-15T08:10:43;3.28;;;1.55;;
10801;SDS011;5453;50.852;7.102;2022-11-15T08:13:34;3.25;;;1.50;;
10801;SDS011;5453;50.852;7.102;2022-11-15T08:16:24;2.30;;;1.38;;
10801;SDS011;5453;50.852;7.102;2022-11-15T08:19:15;2.95;;;1.70;;
10801;SDS011;5453;50.852;7.102;2022-11-15T08:22:05;3.90;;;1.70;;
10801;SDS011;5453;50.852;7.102;2022-11-15T08:24:56;3.92;;;1.77;;
10801;SDS011;5453;50.852;7.102;2022-11-15T08:27:50;3.50;;;1.60;;
10801;SDS011;5453;50.852;7.102;2022-11-15T08:30:42;3.08;;;1.50;;
10801;SDS011;5453;50.852;7.102;2022-11-15T08:33:34;2.92;;;1.40;;
10801;SDS011;5453;50.852;7.102;2022-11-15T08:36:25;3.50;;;1.60;;
10801;SDS011;5453;50.852;7.102;2022-11-15T08:39:16;3.67;;;1.20;;
10801;SDS011;5453;50.852;7.102;2022-11-15T08:42:06;2.55;;;1.50;;
10801;SDS011;5453;50.852;7.102;2022-11-15T08:44:58;1.92;;;1.40;;
10801;SDS011;5453;50.852;7.102;2022-11-15T08:47:49;2.72;;;1.48;;
10801;SDS011;5453;50.852;7.102;2022-11-15T08:50:39;3.42;;;1.45;;
10801;SDS011;5453;50.852;7.102;2022-11-15T08:53:32;2.90;;;1.45;;
10801;SDS011;5453;50.852;7.102;2022-11-15T08:56:23;1.92;;;1.20;;
10801;SDS011;5453;50.852;7.102;2022-11-15T08:59:14;3.65;;;1.50;;
10801;SDS011;5453;50.852;7.102;2022-11-15T09:02:06;1.85;;;1.40;;
10801;SDS011;5453;50.852;7.102;2022-11-15T09:04:59;2.85;;;1.13;;
10801;SDS011;5453;50.852;7.102;2022-11-15T09:07:52;1.23;;;0.98;;
10801;SDS011;5453;50.852;7.102;2022-11-15T09:10:43;3.30;;;1.30;;
10801;SDS011;5453;50.852;7.102;2022-11-15T09:13:34;3.50;;;1.30;;
10801;SDS011;5453;50.852;7.102;2022-11-15T09:16:25;1.92;;;0.90;;
10801;SDS011;5453;50.852;7.102;2022-11-15T09:19:17;3.65;;;1.25;;
10801;SDS011;5453;50.852;7.102;2022-11-15T09:22:08;1.95;;;1.20;;
10801;SDS011;5453;50.852;7.102;2022-11-15T09:24:59;4.00;;;1.35;;
10801;SDS011;5453;50.852;7.102;2022-11-15T09:27:49;2.53;;;1.23;;
10801;SDS011;5453;50.852;7.102;2022-11-15T09:30:40;2.72;;;1.65;;
10801;SDS011;5453;50.852;7.102;2022-11-15T09:33:30;2.35;;;1.30;;
10801;SDS011;5453;50.852;7.102;2022-11-15T09:36:22;2.08;;;1.20;;
10801;SDS011;5453;50.852;7.102;2022-11-15T09:39:13;1.40;;;0.90;;
10801;SDS011;5453;50.852;7.102;2022-11-15T09:42:16;1.77;;;1.10;;
10801;SDS011;5453;50.852;7.102;2022-11-15T09:45:19;2.20;;;0.95;;
10801;SDS011;5453;50.852;7.102;2022-11-15T09:48:24;1.08;;;0.82;;
10801;SDS011;5453;50.852;7.102;2022-11-15T09:51:32;1.50;;;0.95;;
10801;SDS011;5453;50.852;7.102;2022-11-15T09:54:09;1.80;;;1.10;;
10801;SDS011;5453;50.852;7.102;2022-11-15T09:56:49;1.67;;;0.88;;
10801;SDS011;5453;50.852;7.102;2022-11-15T09:59:27;2.40;;;0.90;;
10801;SDS011;5453;50.852;7.102;2022-11-15T10:02:18;3.20;;;0.82;;
10801;SDS011;5453;50.852;7.102;2022-11-15T10:05:04;2.03;;;1.10;;
10801;SDS011;5453;50.852;7.102;2022-11-15T10:07:44;6.07;;;1.30;;
10801;SDS011;5453;50.852;7.102;2022-11-15T10:10:28;1.13;;;1.00;;
10801;SDS011;5453;50.852;7.102;2022-11-15T10:13:06;2.80;;;1.10;;
10801;SDS011;5453;50.852;7.102;2022-11-15T10:15:53;3.20;;;1.00;;
10801;SDS011;5453;50.852;7.102;2022-11-15T10:18:35;1.38;;;0.85;;
10801;SDS011;5453;50.852;7.102;2022-11-15T10:21:15;1.08;;;0.70;;
10801;SDS011;5453;50.852;7.102;2022-11-15T10:23:53;1.30;;;0.85;;
10801;SDS011;5453;50.852;7.102;2022-11-15T10:26:25;1.85;;;0.63;;
10801;SDS011;5453;50.852;7.102;2022-11-15T10:28:59;2.45;;;0.57;;
10801;SDS011;5453;50.852;7.102;2022-11-15T10:31:31;2.53;;;0.73;;
10801;SDS011;5453;50.852;7.102;2022-11-15T10:34:09;3.05;;;0.60;;
10801;SDS011;5453;50.852;7.102;2022-11-15T10:36:46;1.02;;;0.73;;
10801;SDS011;5453;50.852;7.102;2022-11-15T10:39:27;2.97;;;0.70;;
10801;SDS011;5453;50.852;7.102;2022-11-15T10:42:14;1.88;;;0.70;;
10801;SDS011;5453;50.852;7.102;2022-11-15T10:44:49;3.00;;;0.80;;
10801;SDS011;5453;50.852;7.102;2022-11-15T10:47:25;2.85;;;0.77;;
10801;SDS011;5453;50.852;7.102;2022-11-15T10:50:02;1.50;;;0.68;;
10801;SDS011;5453;50.852;7.102;2022-11-15T10:52:37;1.80;;;0.70;;
10801;SDS011;5453;50.852;7.102;2022-11-15T10:55:21;3.80;;;1.20;;
10801;SDS011;5453;50.852;7.102;2022-11-15T10:58:00;5.13;;;1.35;;
10801;SDS011;5453;50.852;7.102;2022-11-15T11:00:36;3.83;;;1.23;;
10801;SDS011;5453;50.852;7.102;2022-11-15T11:03:22;0.73;;;0.50;;
10801;SDS011;5453;50.852;7.102;2022-11-15T11:06:03;1.20;;;0.43;;
10801;SDS011;5453;50.852;7.102;2022-11-15T11:08:38;1.00;;;0.60;;
10801;SDS011;5453;50.852;7.102;2022-11-15T11:11:13;0.93;;;0.70;;
10801;SDS011;5453;50.852;7.102;2022-11-15T11:13:46;0.43;;;0.40;;
10801;SDS011;5453;50.852;7.102;2022-11-15T11:19:41;0.60;;;0.50;;
10801;SDS011;5453;50.852;7.102;2022-11-15T11:22:30;0.68;;;0.47;;
10801;SDS011;5453;50.852;7.102;2022-11-15T11:25:16;1.15;;;0.57;;
10801;SDS011;5453;50.852;7.102;2022-11-15T11:28:14;2.60;;;0.50;;
10801;SDS011;5453;50.852;7.102;2022-11-15T11:31:20;1.95;;;0.90;;
10801;SDS011;5453;50.852;7.102;2022-11-15T11:34:00;1.48;;;0.43;;
10801;SDS011;5453;50.852;7.102;2022-11-15T11:36:45;1.38;;;0.50;;
10801;SDS011;5453;50.852;7.102;2022-11-15T11:39:29;2.83;;;0.73;;
10801;SDS011;5453;50.852;7.102;2022-11-15T11:42:13;1.80;;;0.50;;
10801;SDS011;5453;50.852;7.102;2022-11-15T11:45:00;0.95;;;0.50;;
10801;SDS011;5453;50.852;7.102;2022-11-15T11:47:47;1.45;;;0.75;;
10801;SDS011;5453;50.852;7.102;2022-11-15T11:50:24;2.72;;;0.73;;
10801;SDS011;5453;50.852;7.102;2022-11-15T11:52:59;0.75;;;0.45;;
10801;SDS011;5453;50.852;7.102;2022-11-15T11:55:41;1.95;;;0.43;;
10801;SDS011;5453;50.852;7.102;2022-11-15T11:58:17;1.80;;;0.90;;
10801;SDS011;5453;50.852;7.102;2022-11-15T12:00:56;1.85;;;0.68;;
10801;SDS011;5453;50.852;7.102;2022-11-15T12:03:47;1.35;;;0.60;;
10801;SDS011;5453;50.852;7.102;2022-11-15T12:06:30;0.93;;;0.60;;
10801;SDS011;5453;50.852;7.102;2022-11-15T12:09:07;0.80;;;0.52;;
10801;SDS011;5453;50.852;7.102;2022-11-15T12:11:49;1.55;;;1.15;;
10801;SDS011;5453;50.852;7.102;2022-11-15T12:14:29;3.00;;;1.08;;
10801;SDS011;5453;50.852;7.102;2022-11-15T12:17:08;2.42;;;0.60;;
10801;SDS011;5453;50.852;7.102;2022-11-15T12:19:42;3.25;;;1.10;;
10801;SDS011;5453;50.852;7.102;2022-11-15T12:22:16;2.72;;;0.75;;
10801;SDS011;5453;50.852;7.102;2022-11-15T12:24:56;1.65;;;0.60;;
10801;SDS011;5453;50.852;7.102;2022-11-15T12:27:34;2.60;;;0.73;;
10801;SDS011;5453;50.852;7.102;2022-11-15T12:30:11;1.55;;;0.60;;
10801;SDS011;5453;50.852;7.102;2022-11-15T12:32:51;2.53;;;0.60;;
10801;SDS011;5453;50.852;7.102;2022-11-15T12:35:28;1.08;;;0.57;;
10801;SDS011;5453;50.852;7.102;2022-11-15T12:38:08;2.42;;;0.70;;
10801;SDS011;5453;50.852;7.102;2022-11-15T12:41:12;1.67;;;0.90;;
10801;SDS011;5453;50.852;7.102;2022-11-15T12:43:47;2.35;;;0.90;;
10801;SDS011;5453;50.852;7.102;2022-11-15T12:46:21;1.73;;;0.68;;
10801;SDS011;5453;50.852;7.102;2022-11-15T12:52:18;3.03;;;0.95;;
10801;SDS011;5453;50.852;7.102;2022-11-15T12:54:56;4.28;;;1.40;;
10801;SDS011;5453;50.852;7.102;2022-11-15T12:57:33;3.65;;;1.05;;
10801;SDS011;5453;50.852;7.102;2022-11-15T13:03:19;3.35;;;1.20;;
10801;SDS011;5453;50.852;7.102;2022-11-15T13:05:58;3.00;;;1.25;;
10801;SDS011;5453;50.852;7.102;2022-11-15T13:08:36;3.25;;;1.20;;
10801;SDS011;5453;50.852;7.102;2022-11-15T13:14:43;2.05;;;1.30;;
10801;SDS011;5453;50.852;7.102;2022-11-15T13:20:22;2.97;;;1.33;;
10801;SDS011;5453;50.852;7.102;2022-11-15T13:23:02;3.58;;;1.80;;
10801;SDS011;5453;50.852;7.102;2022-11-15T13:28:45;3.20;;;1.38;;
10801;SDS011;5453;50.852;7.102;2022-11-15T13:31:23;2.22;;;1.30;;
10801;SDS011;5453;50.852;7.102;2022-11-15T13:34:02;3.28;;;1.23;;
10801;SDS011;5453;50.852;7.102;2022-11-15T13:36:49;4.47;;;1.20;;
10801;SDS011;5453;50.852;7.102;2022-11-15T13:39:27;2.25;;;1.10;;
10801;SDS011;5453;50.852;7.102;2022-11-15T13:42:02;3.30;;;1.33;;
10801;SDS011;5453;50.852;7.102;2022-11-15T13:44:35;2.88;;;1.15;;
10801;SDS011;5453;50.852;7.102;2022-11-15T13:47:12;2.35;;;1.35;;
10801;SDS011;5453;50.852;7.102;2022-11-15T13:49:46;2.88;;;1.20;;
10801;SDS011;5453;50.852;7.102;2022-11-15T13:52:19;1.85;;;1.13;;
10801;SDS011;5453;50.852;7.102;2022-11-15T13:54:55;2.25;;;1.45;;
10801;SDS011;5453;50.852;7.102;2022-11-15T13:57:34;2.97;;;1.17;;
10801;SDS011;5453;50.852;7.102;2022-11-15T14:00:25;2.10;;;1.10;;
10801;SDS011;5453;50.852;7.102;2022-11-15T14:03:06;1.40;;;1.08;;
10801;SDS011;5453;50.852;7.102;2022-11-15T14:06:00;3.75;;;1.60;;
10801;SDS011;5453;50.852;7.102;2022-11-15T14:08:40;3.60;;;1.42;;
10801;SDS011;5453;50.852;7.102;2022-11-15T14:11:30;2.55;;;1.50;;
10801;SDS011;5453;50.852;7.102;2022-11-15T14:14:08;5.85;;;1.42;;
10801;SDS011;5453;50.852;7.102;2022-11-15T14:16:46;2.05;;;1.08;;
10801;SDS011;5453;50.852;7.102;2022-11-15T14:19:33;3.05;;;1.10;;
10801;SDS011;5453;50.852;7.102;2022-11-15T14:22:09;2.95;;;1.40;;
10801;SDS011;5453;50.852;7.102;2022-11-15T14:25:07;2.67;;;1.40;;
10801;SDS011;5453;50.852;7.102;2022-11-15T14:30:46;2.63;;;1.55;;
10801;SDS011;5453;50.852;7.102;2022-11-15T14:33:22;2.20;;;1.13;;
10801;SDS011;5453;50.852;7.102;2022-11-15T14:36:01;1.98;;;1.30;;
10801;SDS011;5453;50.852;7.102;2022-11-15T14:38:36;1.95;;;1.15;;
10801;SDS011;5453;50.852;7.102;2022-11-15T14:41:12;2.50;;;1.20;;
10801;SDS011;5453;50.852;7.102;2022-11-15T14:43:50;2.10;;;1.30;;
10801;SDS011;5453;50.852;7.102;2022-11-15T14:46:23;5.32;;;1.50;;
10801;SDS011;5453;50.852;7.102;2022-11-15T14:48:56;2.65;;;1.08;;
10801;SDS011;5453;50.852;7.102;2022-11-15T14:51:29;3.25;;;1.35;;
10801;SDS011;5453;50.852;7.102;2022-11-15T14:54:03;1.80;;;1.10;;
10801;SDS011;5453;50.852;7.102;2022-11-15T14:56:36;2.35;;;1.25;;
10801;SDS011;5453;50.852;7.102;2022-11-15T14:59:09;3.50;;;1.25;;
10801;SDS011;5453;50.852;7.102;2022-11-15T15:01:44;3.50;;;1.05;;
10801;SDS011;5453;50.852;7.102;2022-11-15T15:04:17;3.33;;;1.40;;
10801;SDS011;5453;50.852;7.102;2022-11-15T15:06:49;1.65;;;1.08;;
10801;SDS011;5453;50.852;7.102;2022-11-15T15:09:21;2.05;;;1.13;;
10801;SDS011;5453;50.852;7.102;2022-11-15T15:11:55;2.85;;;1.20;;
10801;SDS011;5453;50.852;7.102;2022-11-15T15:14:27;3.50;;;2.13;;
10801;SDS011;5453;50.852;7.102;2022-11-15T15:17:00;1.83;;;1.35;;
10801;SDS011;5453;50.852;7.102;2022-11-15T15:19:32;2.85;;;1.90;;
10801;SDS011;5453;50.852;7.102;2022-11-15T15:22:05;6.68;;;2.97;;
10801;SDS011;5453;50.852;7.102;2022-11-15T15:24:39;6.85;;;3.30;;
10801;SDS011;5453;50.852;7.102;2022-11-15T15:27:13;5.85;;;2.80;;
10801;SDS011;5453;50.852;7.102;2022-11-15T15:29:45;4.00;;;2.83;;
10801;SDS011;5453;50.852;7.102;2022-11-15T15:32:21;5.20;;;2.35;;
10801;SDS011;5453;50.852;7.102;2022-11-15T15:34:53;7.65;;;3.53;;
10801;SDS011;5453;50.852;7.102;2022-11-15T15:37:25;4.65;;;2.72;;
10801;SDS011;5453;50.852;7.102;2022-11-15T15:39:58;5.95;;;3.03;;
10801;SDS011;5453;50.852;7.102;2022-11-15T15:42:34;2.33;;;1.63;;
10801;SDS011;5453;50.852;7.102;2022-11-15T15:45:07;4.68;;;1.70;;
10801;SDS011;5453;50.852;7.102;2022-11-15T15:47:40;5.65;;;2.95;;
10801;SDS011;5453;50.852;7.102;2022-11-15T15:50:16;8.73;;;3.50;;
10801;SDS011;5453;50.852;7.102;2022-11-15T15:52:54;8.73;;;4.50;;
10801;SDS011;5453;50.852;7.102;2022-11-15T15:55:51;9.80;;;4.78;;
10801;SDS011;5453;50.852;7.102;2022-11-15T15:58:29;3.03;;;2.03;;
10801;SDS011;5453;50.852;7.102;2022-11-15T16:01:02;3.10;;;1.83;;
10801;SDS011;5453;50.852;7.102;2022-11-15T16:03:34;3.17;;;2.05;;
10801;SDS011;5453;50.852;7.102;2022-11-15T16:09:06;4.55;;;2.15;;
10801;SDS011;5453;50.852;7.102;2022-11-15T16:11:40;3.53;;;1.92;;
10801;SDS011;5453;50.852;7.102;2022-11-15T16:14:15;3.28;;;1.75;;
10801;SDS011;5453;50.852;7.102;2022-11-15T16:16:48;7.70;;;4.55;;
10801;SDS011;5453;50.852;7.102;2022-11-15T16:19:20;5.25;;;2.90;;
10801;SDS011;5453;50.852;7.102;2022-11-15T16:21:52;3.75;;;2.50;;
10801;SDS011;5453;50.852;7.102;2022-11-15T16:24:24;4.22;;;2.25;;
10801;SDS011;5453;50.852;7.102;2022-11-15T16:26:57;4.47;;;1.83;;
10801;SDS011;5453;50.852;7.102;2022-11-15T16:29:30;5.28;;;2.42;;
10801;SDS011;5453;50.852;7.102;2022-11-15T16:32:02;4.85;;;2.10;;
10801;SDS011;5453;50.852;7.102;2022-11-15T16:34:34;10.27;;;5.13;;
10801;SDS011;5453;50.852;7.102;2022-11-15T16:37:08;3.35;;;1.90;;
10801;SDS011;5453;50.852;7.102;2022-11-15T16:39:52;2.63;;;1.42;;
10801;SDS011;5453;50.852;7.102;2022-11-15T16:42:24;5.05;;;2.00;;
10801;SDS011;5453;50.852;7.102;2022-11-15T16:44:58;5.63;;;2.50;;
10801;SDS011;5453;50.852;7.102;2022-11-15T16:47:30;2.40;;;1.73;;
10801;SDS011;5453;50.852;7.102;2022-11-15T16:50:02;4.72;;;2.20;;
10801;SDS011;5453;50.852;7.102;2022-11-15T16:52:35;2.90;;;1.70;;
10801;SDS011;5453;50.852;7.102;2022-11-15T16:55:08;2.90;;;1.75;;
10801;SDS011;5453;50.852;7.102;2022-11-15T16:57:40;2.42;;;1.40;;
10801;SDS011;5453;50.852;7.102;2022-11-15T17:00:14;2.20;;;1.48;;
10801;SDS011;5453;50.852;7.102;2022-11-15T17:02:48;4.03;;;1.48;;
10801;SDS011;5453;50.852;7.102;2022-11-15T17:05:22;2.67;;;1.48;;
10801;SDS011;5453;50.852;7.102;2022-11-15T17:07:56;2.30;;;1.33;;
10801;SDS011;5453;50.852;7.102;2022-11-15T17:10:28;2.85;;;1.48;;
10801;SDS011;5453;50.852;7.102;2022-11-15T17:13:00;3.50;;;1.45;;
10801;SDS011;5453;50.852;7.102;2022-11-15T17:15:34;3.42;;;1.60;;
10801;SDS011;5453;50.852;7.102;2022-11-15T17:18:06;11.45;;;6.10;;
10801;SDS011;5453;50.852;7.102;2022-11-15T17:20:41;6.03;;;3.20;;
10801;SDS011;5453;50.852;7.102;2022-11-15T17:23:15;7.30;;;3.33;;
10801;SDS011;5453;50.852;7.102;2022-11-15T17:25:47;4.38;;;1.88;;
10801;SDS011;5453;50.852;7.102;2022-11-15T17:28:30;8.30;;;3.80;;
10801;SDS011;5453;50.852;7.102;2022-11-15T17:31:04;9.80;;;5.22;;